createdAt,value
2017-11-15T00:01:39.439Z,31.52
2017-11-15T00:04:06.876Z,39.75
2017-11-15T00:06:35.109Z,40.10
2017-11-15T00:09:02.539Z,40.22
2017-11-15T00:11:29.975Z,39.33
2017-11-15T00:13:57.413Z,46.13
2017-11-15T00:16:24.865Z,33.97
2017-11-15T00:18:52.314Z,31.58
2017-11-15T00:21:19.757Z,36.55
2017-11-15T00:23:47.185Z,43.22
2017-11-15T00:26:14.630Z,45.70
2017-11-15T00:28:42.071Z,36.80
2017-11-15T00:31:09.557Z,30.95
2017-11-15T00:33:36.997Z,32.75
2017-11-15T00:36:04.430Z,29.77
2017-11-15T00:38:31.907Z,42.45
2017-11-15T00:40:59.354Z,33.90
2017-11-15T00:43:26.797Z,31.60
2017-11-15T00:45:55.008Z,37.67
2017-11-15T00:48:22.449Z,27.27
2017-11-15T00:50:49.877Z,35.85
2017-11-15T00:53:17.321Z,33.40
2017-11-15T00:55:44.753Z,27.52
2017-11-15T00:58:12.188Z,32.92
2017-11-15T01:00:40.466Z,31.25
2017-11-15T01:03:07.959Z,33.35
2017-11-15T01:05:36.185Z,35.08
2017-11-15T01:08:03.629Z,27.05
2017-11-15T01:10:31.062Z,41.45
2017-11-15T01:12:58.510Z,32.03
2017-11-15T01:15:25.934Z,26.98
2017-11-15T01:17:53.368Z,27.83
2017-11-15T01:20:21.572Z,41.70
2017-11-15T01:22:49.016Z,32.45
2017-11-15T01:25:16.453Z,35.08
2017-11-15T01:27:43.936Z,32.22
2017-11-15T01:30:11.348Z,30.60
2017-11-15T01:32:38.785Z,26.02
2017-11-15T01:35:06.235Z,29.98
2017-11-15T01:37:33.658Z,25.83
2017-11-15T01:40:01.103Z,31.25
2017-11-15T01:42:28.533Z,28.33
2017-11-15T01:44:55.969Z,25.02
2017-11-15T01:47:23.400Z,29.40
2017-11-15T01:49:50.835Z,25.40
2017-11-15T01:52:18.286Z,28.90
2017-11-15T01:54:45.713Z,22.45
2017-11-15T01:57:13.908Z,26.10
2017-11-15T01:59:41.353Z,20.77
2017-11-15T02:02:08.788Z,26.00
2017-11-15T02:04:36.229Z,21.02
2017-11-15T02:07:03.663Z,22.92
2017-11-15T02:09:31.106Z,21.75
2017-11-15T02:11:58.537Z,25.42
2017-11-15T02:14:26.755Z,24.30
2017-11-15T02:16:54.188Z,22.77
2017-11-15T02:19:21.628Z,22.42
2017-11-15T02:21:49.090Z,21.23
2017-11-15T02:24:16.564Z,20.15
2017-11-15T02:26:44.772Z,22.48
2017-11-15T02:29:12.215Z,24.08
2017-11-15T02:31:39.647Z,20.80
2017-11-15T02:34:07.091Z,22.35
2017-11-15T02:36:34.527Z,22.45
2017-11-15T02:39:01.964Z,21.10
2017-11-15T02:41:29.399Z,25.00
2017-11-15T02:43:56.830Z,22.13
2017-11-15T02:46:24.265Z,24.35
2017-11-15T02:48:52.465Z,23.10
2017-11-15T02:51:19.913Z,27.08
2017-11-15T02:53:47.345Z,22.37
2017-11-15T02:56:14.795Z,22.33
2017-11-15T02:58:42.237Z,27.30
2017-11-15T03:01:09.681Z,23.85
2017-11-15T03:03:37.104Z,22.20
2017-11-15T03:06:04.565Z,25.92
2017-11-15T03:08:32.140Z,28.62
2017-11-15T03:10:59.584Z,30.23
2017-11-15T03:13:27.014Z,32.05
2017-11-15T03:15:54.457Z,27.50
2017-11-15T03:18:21.940Z,29.90
2017-11-15T03:20:50.160Z,32.97
2017-11-15T03:23:17.593Z,32.80
2017-11-15T03:25:45.039Z,34.67
2017-11-15T03:28:12.482Z,36.28
2017-11-15T03:30:39.910Z,35.95
2017-11-15T03:33:07.342Z,32.85
2017-11-15T03:35:34.773Z,39.40
2017-11-15T03:38:02.221Z,35.22
2017-11-15T03:40:29.654Z,37.47
2017-11-15T03:42:57.101Z,33.28
2017-11-15T03:45:24.546Z,34.83
2017-11-15T03:47:51.982Z,36.38
2017-11-15T03:50:19.414Z,39.60
2017-11-15T03:52:46.860Z,36.83
2017-11-15T03:55:14.294Z,35.50
2017-11-15T03:57:42.514Z,44.65
2017-11-15T04:00:09.942Z,44.25
2017-11-15T04:02:37.377Z,39.45
2017-11-15T04:05:04.817Z,36.95
2017-11-15T04:07:32.270Z,40.78
2017-11-15T04:09:59.703Z,49.50
2017-11-15T04:12:27.138Z,49.85
2017-11-15T04:14:54.585Z,46.33
2017-11-15T04:17:22.049Z,43.40
2017-11-15T04:19:49.492Z,47.25
2017-11-15T04:22:16.973Z,49.72
2017-11-15T04:24:45.173Z,47.03
2017-11-15T04:27:12.606Z,56.80
2017-11-15T04:29:40.058Z,49.38
2017-11-15T04:32:07.489Z,53.50
2017-11-15T04:34:34.928Z,52.33
2017-11-15T04:37:02.356Z,47.70
2017-11-15T04:39:29.830Z,46.60
2017-11-15T04:41:57.260Z,45.00
2017-11-15T04:44:24.704Z,50.35
2017-11-15T04:46:52.137Z,54.53
2017-11-15T04:49:19.577Z,55.40
2017-11-15T04:51:47.022Z,58.30
2017-11-15T04:54:14.505Z,63.08
2017-11-15T04:56:41.953Z,54.08
2017-11-15T04:59:09.395Z,53.75
2017-11-15T05:01:36.836Z,47.78
2017-11-15T05:04:04.279Z,50.38
2017-11-15T05:06:31.715Z,52.15
2017-11-15T05:08:59.152Z,46.60
2017-11-15T05:11:26.585Z,53.67
2017-11-15T05:13:54.092Z,55.45
2017-11-15T05:16:22.277Z,57.03
2017-11-15T05:18:49.709Z,53.00
2017-11-15T05:21:17.158Z,58.75
2017-11-15T05:23:44.600Z,48.58
2017-11-15T05:26:12.052Z,51.70
2017-11-15T05:28:39.489Z,45.28
2017-11-15T05:31:06.922Z,52.25
2017-11-15T05:33:34.360Z,57.22
2017-11-15T05:36:01.797Z,55.72
2017-11-15T05:38:29.240Z,55.12
2017-11-15T05:40:56.713Z,52.28
2017-11-15T05:43:24.198Z,55.47
2017-11-15T05:45:51.628Z,42.35
2017-11-15T05:48:19.065Z,49.05
2017-11-15T05:50:46.528Z,43.00
2017-11-15T05:53:14.757Z,51.75
2017-11-15T05:55:42.194Z,48.85
2017-11-15T05:58:09.641Z,51.85
2017-11-15T06:00:37.073Z,45.88
2017-11-15T06:03:04.542Z,47.10
2017-11-15T06:05:31.974Z,49.63
2017-11-15T06:07:59.416Z,52.58
2017-11-15T06:10:26.913Z,52.83
2017-11-15T06:12:54.313Z,52.08
2017-11-15T06:15:21.795Z,47.80
2017-11-15T06:17:49.199Z,47.60
2017-11-15T06:20:16.729Z,54.40
2017-11-15T06:22:44.187Z,49.30
2017-11-15T06:25:11.509Z,47.78
2017-11-15T06:27:38.945Z,43.10
2017-11-15T06:30:06.417Z,46.28
2017-11-15T06:32:33.997Z,52.85
2017-11-15T06:35:01.485Z,49.78
2017-11-15T06:37:29.050Z,47.33
2017-11-15T06:39:56.403Z,49.40
2017-11-15T06:42:23.834Z,46.00
2017-11-15T06:44:51.301Z,47.75
2017-11-15T06:47:18.714Z,47.72
2017-11-15T06:49:46.161Z,49.03
2017-11-15T06:52:13.788Z,47.50
2017-11-15T06:54:41.224Z,48.92
2017-11-15T06:57:08.675Z,45.35
2017-11-15T06:59:36.882Z,48.80
2017-11-15T07:02:05.086Z,45.25
2017-11-15T07:04:32.533Z,44.83
2017-11-15T07:07:00.017Z,54.03
2017-11-15T07:09:27.486Z,46.13
2017-11-15T07:11:55.010Z,55.90
2017-11-15T07:14:22.440Z,45.45
2017-11-15T07:16:50.694Z,46.10
2017-11-15T07:19:18.123Z,47.53
2017-11-15T07:21:45.680Z,44.00
2017-11-15T07:24:13.467Z,46.13
2017-11-15T07:26:41.717Z,46.85
2017-11-15T07:29:10.006Z,38.38
2017-11-15T07:31:37.445Z,63.87
2017-11-15T07:34:04.913Z,50.83
2017-11-15T07:36:32.374Z,39.70
2017-11-15T07:39:00.229Z,46.50
2017-11-15T07:41:28.504Z,44.58
2017-11-15T07:43:56.003Z,46.40
2017-11-15T07:46:23.441Z,47.42
2017-11-15T07:48:50.904Z,34.30
2017-11-15T07:51:18.337Z,51.13
2017-11-15T07:53:45.940Z,46.22
2017-11-15T07:56:14.157Z,45.85
2017-11-15T07:58:41.593Z,42.15
2017-11-15T08:01:09.107Z,41.30
2017-11-15T08:03:36.545Z,43.55
2017-11-15T08:06:04.014Z,45.20
2017-11-15T08:08:31.449Z,49.05
2017-11-15T08:10:58.882Z,45.10
2017-11-15T08:13:26.323Z,43.22
2017-11-15T08:15:53.782Z,41.30
2017-11-15T08:18:21.741Z,40.15
2017-11-15T08:20:49.168Z,39.65
2017-11-15T08:23:16.656Z,46.10
2017-11-15T08:25:44.306Z,51.22
2017-11-15T08:28:11.976Z,46.75
2017-11-15T08:30:39.553Z,39.90
2017-11-15T08:33:07.104Z,48.10
2017-11-15T08:35:34.588Z,42.47
2017-11-15T08:38:02.031Z,41.65
2017-11-15T08:40:29.489Z,46.17
2017-11-15T08:42:56.913Z,47.80
2017-11-15T08:45:24.360Z,36.80
2017-11-15T08:47:51.905Z,44.85
2017-11-15T08:50:19.493Z,40.65
2017-11-15T08:52:46.942Z,39.40
2017-11-15T08:55:14.390Z,39.17
2017-11-15T08:57:41.841Z,43.17
2017-11-15T09:00:09.272Z,45.17
2017-11-15T09:02:36.726Z,44.80
2017-11-15T09:05:04.153Z,37.80
2017-11-15T09:07:31.626Z,42.92
2017-11-15T09:09:59.090Z,41.55
2017-11-15T09:12:26.617Z,46.83
2017-11-15T09:14:54.089Z,48.22
2017-11-15T09:17:22.310Z,44.03
2017-11-15T09:19:49.773Z,49.88
2017-11-15T09:22:17.221Z,44.60
2017-11-15T09:24:44.658Z,54.05
2017-11-15T09:27:12.118Z,50.95
2017-11-15T09:29:40.345Z,46.80
2017-11-15T09:32:07.792Z,46.65
2017-11-15T09:34:35.281Z,44.75
2017-11-15T09:37:03.483Z,37.05
2017-11-15T09:39:30.925Z,40.03
2017-11-15T09:41:59.260Z,41.13
2017-11-15T09:44:26.699Z,46.47
2017-11-15T09:46:54.133Z,41.50
2017-11-15T09:49:22.330Z,41.92
2017-11-15T09:51:49.797Z,37.42
2017-11-15T09:54:17.233Z,36.28
2017-11-15T09:56:44.661Z,36.25
2017-11-15T09:59:12.237Z,40.72
2017-11-15T10:01:40.465Z,37.92
2017-11-15T10:04:07.932Z,36.72
2017-11-15T10:06:35.396Z,33.20
2017-11-15T10:09:03.633Z,33.17
2017-11-15T10:11:31.281Z,35.83
2017-11-15T10:13:58.726Z,36.15
2017-11-15T10:16:26.170Z,32.78
2017-11-15T10:18:53.614Z,38.05
2017-11-15T10:21:21.061Z,30.60
2017-11-15T10:23:48.497Z,36.83
2017-11-15T10:26:15.933Z,38.55
2017-11-15T10:28:43.365Z,38.22
2017-11-15T10:31:10.834Z,40.05
2017-11-15T10:33:38.271Z,38.80
2017-11-15T10:36:05.706Z,35.13
2017-11-15T10:38:33.258Z,32.42
2017-11-15T10:41:00.731Z,39.10
2017-11-15T10:43:28.933Z,43.22
2017-11-15T10:45:56.402Z,37.88
2017-11-15T10:48:23.962Z,38.85
2017-11-15T10:50:51.491Z,36.20
2017-11-15T10:53:18.935Z,37.22
2017-11-15T10:55:46.392Z,36.65
2017-11-15T10:58:13.822Z,37.28
2017-11-15T11:00:41.278Z,35.00
2017-11-15T11:03:08.801Z,38.88
2017-11-15T11:05:37.024Z,37.40
2017-11-15T11:08:04.458Z,39.60
2017-11-15T11:10:31.955Z,31.77
2017-11-15T11:12:59.406Z,35.38
2017-11-15T11:15:26.838Z,38.85
2017-11-15T11:17:54.280Z,36.70
2017-11-15T11:20:21.878Z,35.38
2017-11-15T11:22:49.325Z,35.85
2017-11-15T11:25:16.759Z,40.45
2017-11-15T11:27:44.206Z,37.65
2017-11-15T11:30:11.636Z,45.08
2017-11-15T11:32:39.077Z,39.95
2017-11-15T11:35:07.490Z,42.03
2017-11-15T11:37:35.688Z,39.42
2017-11-15T11:40:03.891Z,39.45
2017-11-15T11:42:31.385Z,49.90
2017-11-15T11:44:58.857Z,37.13
2017-11-15T11:47:26.353Z,47.50
2017-11-15T11:49:53.897Z,38.97
2017-11-15T11:52:21.361Z,36.47
2017-11-15T11:54:48.868Z,38.03
2017-11-15T11:57:16.337Z,39.03
2017-11-15T11:59:43.790Z,38.70
2017-11-15T12:02:11.258Z,37.03
2017-11-15T12:04:39.179Z,41.10
2017-11-15T12:07:08.114Z,37.90
2017-11-15T12:09:35.606Z,29.67
2017-11-15T12:12:03.057Z,37.28
2017-11-15T12:14:31.253Z,40.45
2017-11-15T12:16:58.864Z,35.08
2017-11-15T12:19:27.077Z,36.95
2017-11-15T12:21:54.519Z,43.80
2017-11-15T12:24:21.967Z,44.17
2017-11-15T12:26:49.405Z,36.13
2017-11-15T12:29:16.876Z,39.22
2017-11-15T12:31:44.591Z,41.97
2017-11-15T12:34:12.031Z,37.92
2017-11-15T12:36:39.478Z,40.08
2017-11-15T12:39:06.927Z,42.15
2017-11-15T12:41:34.401Z,37.58
2017-11-15T12:44:02.038Z,33.92
2017-11-15T12:46:29.620Z,37.85
2017-11-15T12:48:57.927Z,38.20
2017-11-15T12:51:25.396Z,34.55
2017-11-15T12:53:52.868Z,33.80
2017-11-15T12:56:21.097Z,40.67
2017-11-15T12:58:48.916Z,30.45
2017-11-15T13:01:16.386Z,33.55
2017-11-15T13:03:43.835Z,32.33
2017-11-15T13:06:11.288Z,35.28
2017-11-15T13:08:39.516Z,46.58
2017-11-15T13:11:06.951Z,34.55
2017-11-15T13:13:34.414Z,35.75
2017-11-15T13:16:01.857Z,36.30
2017-11-15T13:18:29.305Z,32.10
2017-11-15T13:20:56.748Z,37.90
2017-11-15T13:23:24.184Z,33.70
2017-11-15T13:25:51.742Z,31.35
2017-11-15T13:28:19.209Z,32.10
2017-11-15T13:30:47.415Z,25.35
2017-11-15T13:33:14.853Z,27.00
2017-11-15T13:35:42.311Z,22.13
2017-11-15T13:38:10.166Z,27.40
2017-11-15T13:40:37.674Z,26.17
2017-11-15T13:43:05.114Z,23.17
2017-11-15T13:45:32.567Z,38.65
2017-11-15T13:48:00.019Z,32.08
2017-11-15T13:50:27.450Z,31.90
2017-11-15T13:52:55.017Z,27.92
2017-11-15T13:55:22.457Z,29.80
2017-11-15T13:57:49.933Z,23.25
2017-11-15T14:00:17.473Z,28.75
2017-11-15T14:02:45.017Z,23.73
2017-11-15T14:05:12.459Z,30.25
2017-11-15T14:07:39.897Z,27.52
2017-11-15T14:10:07.426Z,27.70
2017-11-15T14:12:34.951Z,32.83
2017-11-15T14:15:02.457Z,28.35
2017-11-15T14:17:30.736Z,23.15
2017-11-15T14:19:58.939Z,33.45
2017-11-15T14:22:26.378Z,34.08
2017-11-15T14:24:53.816Z,32.30
2017-11-15T14:27:21.274Z,29.73
2017-11-15T14:29:48.720Z,29.20
2017-11-15T14:32:16.284Z,32.42
2017-11-15T14:34:43.715Z,27.20
2017-11-15T14:37:11.161Z,28.77
2017-11-15T14:39:38.592Z,28.23
2017-11-15T14:42:06.034Z,30.48
2017-11-15T14:44:33.462Z,28.65
2017-11-15T14:47:01.033Z,29.10
2017-11-15T14:49:34.436Z,33.17
2017-11-15T14:52:02.844Z,29.12
2017-11-15T14:54:30.297Z,34.00
2017-11-15T14:56:57.753Z,37.20
2017-11-15T14:59:25.188Z,34.00
2017-11-15T15:01:52.709Z,39.63
2017-11-15T15:04:20.161Z,36.30
2017-11-15T15:06:47.607Z,34.88
2017-11-15T15:09:15.075Z,38.28
2017-11-15T15:11:42.609Z,38.78
2017-11-15T15:14:10.052Z,36.55
2017-11-15T15:16:47.394Z,46.33
2017-11-15T15:19:14.978Z,38.72
2017-11-15T15:21:42.431Z,41.42
2017-11-15T15:24:09.983Z,49.50
2017-11-15T15:26:38.364Z,45.17
2017-11-15T15:29:05.812Z,48.70
2017-11-15T15:31:33.322Z,40.45
2017-11-15T15:34:00.860Z,54.30
2017-11-15T15:36:28.403Z,52.72
2017-11-15T15:38:56.673Z,53.55
2017-11-15T15:41:24.120Z,51.28
2017-11-15T15:43:51.627Z,58.47
2017-11-15T15:46:19.124Z,55.38
2017-11-15T15:48:47.325Z,52.75
2017-11-15T15:51:15.786Z,51.53
2017-11-15T15:53:43.266Z,66.70
2017-11-15T15:56:10.709Z,57.22
2017-11-15T15:58:38.923Z,58.22
2017-11-15T16:01:06.356Z,55.12
2017-11-15T16:03:33.821Z,81.03
2017-11-15T16:06:01.281Z,53.40
2017-11-15T16:08:28.761Z,54.00
2017-11-15T16:10:56.997Z,62.62
2017-11-15T16:13:24.446Z,62.40
2017-11-15T16:15:52.758Z,59.17
2017-11-15T16:18:20.211Z,57.42
2017-11-15T16:20:47.648Z,55.17
2017-11-15T16:23:15.084Z,60.40
2017-11-15T16:25:42.533Z,68.45
2017-11-15T16:28:10.128Z,72.20
2017-11-15T16:30:37.572Z,60.75
2017-11-15T16:33:05.008Z,59.00
2017-11-15T16:35:32.488Z,68.93
2017-11-15T16:38:00.133Z,72.37
2017-11-15T16:40:28.333Z,66.65
2017-11-15T16:42:55.809Z,56.28
2017-11-15T16:45:23.426Z,68.80
2017-11-15T16:47:50.880Z,67.40
2017-11-15T16:50:18.329Z,70.22
2017-11-15T16:52:45.761Z,62.65
2017-11-15T16:55:13.240Z,57.53
2017-11-15T16:57:40.766Z,63.10
2017-11-15T17:00:08.214Z,60.67
2017-11-15T17:02:35.649Z,53.13
2017-11-15T17:05:03.110Z,54.47
2017-11-15T17:07:30.549Z,52.05
2017-11-15T17:09:58.000Z,68.85
2017-11-15T17:12:25.497Z,51.13
2017-11-15T17:14:52.937Z,52.75
2017-11-15T17:17:20.409Z,56.70
2017-11-15T17:19:47.869Z,49.58
2017-11-15T17:22:16.121Z,44.05
2017-11-15T17:24:43.569Z,45.28
2017-11-15T17:27:11.900Z,46.92
2017-11-15T17:29:39.384Z,45.85
2017-11-15T17:32:07.597Z,50.72
2017-11-15T17:34:35.053Z,56.17
2017-11-15T17:37:02.514Z,50.78
2017-11-15T17:39:29.965Z,53.75
2017-11-15T17:41:57.451Z,61.78
2017-11-15T17:44:24.958Z,53.90
2017-11-15T17:46:53.170Z,54.47
2017-11-15T17:49:20.621Z,54.42
2017-11-15T17:51:48.088Z,52.15
2017-11-15T17:54:15.529Z,52.05
2017-11-15T17:56:42.985Z,55.83
2017-11-15T17:59:11.382Z,52.20
2017-11-15T18:01:38.838Z,54.65
2017-11-15T18:04:06.256Z,52.58
2017-11-15T18:06:33.716Z,50.67
2017-11-15T18:09:01.166Z,53.87
2017-11-15T18:11:28.612Z,56.35
2017-11-15T18:13:58.023Z,51.28
2017-11-15T18:16:25.496Z,101.45
2017-11-15T18:18:53.699Z,46.20
2017-11-15T18:21:21.149Z,54.10
2017-11-15T18:23:48.600Z,47.62
2017-11-15T18:26:16.053Z,51.08
2017-11-15T18:28:43.506Z,57.83
2017-11-15T18:31:10.973Z,63.83
2017-11-15T18:33:39.208Z,54.78
2017-11-15T18:36:06.666Z,58.78
2017-11-15T18:38:34.205Z,55.47
2017-11-15T18:41:01.648Z,56.97
2017-11-15T18:43:29.084Z,60.53
2017-11-15T18:45:57.281Z,59.72
2017-11-15T18:48:24.767Z,57.62
2017-11-15T18:50:52.227Z,55.12
2017-11-15T18:53:19.881Z,66.82
2017-11-15T18:55:48.081Z,67.07
2017-11-15T18:58:15.617Z,60.92
2017-11-15T19:00:43.051Z,54.83
2017-11-15T19:03:10.497Z,61.55
2017-11-15T19:05:37.926Z,54.03
2017-11-15T19:08:06.228Z,54.80
2017-11-15T19:10:33.671Z,59.40
2017-11-15T19:13:01.193Z,58.08
2017-11-15T19:15:28.644Z,53.60
2017-11-15T19:17:56.101Z,54.95
2017-11-15T19:20:23.815Z,51.63
2017-11-15T19:22:52.038Z,54.58
2017-11-15T19:25:19.564Z,65.03
2017-11-15T19:27:47.006Z,55.33
2017-11-15T19:30:14.560Z,63.65
2017-11-15T19:32:42.052Z,63.38
2017-11-15T19:35:09.736Z,52.90
2017-11-15T19:37:37.173Z,61.17
2017-11-15T19:40:04.645Z,56.03
2017-11-15T19:42:32.097Z,55.53
2017-11-15T19:44:59.545Z,59.50
2017-11-15T19:47:26.985Z,60.22
2017-11-15T19:49:54.628Z,58.03
2017-11-15T19:52:22.074Z,46.58
2017-11-15T19:54:49.521Z,54.20
2017-11-15T19:57:17.744Z,61.80
2017-11-15T19:59:45.189Z,54.72
2017-11-15T20:02:12.714Z,51.08
2017-11-15T20:04:40.297Z,60.78
2017-11-15T20:07:07.853Z,52.05
2017-11-15T20:09:35.293Z,59.72
2017-11-15T20:12:02.782Z,54.55
2017-11-15T20:14:30.250Z,64.05
2017-11-15T20:16:58.466Z,53.20
2017-11-15T20:19:26.682Z,56.05
2017-11-15T20:21:54.129Z,64.93
2017-11-15T20:24:21.589Z,52.17
2017-11-15T20:26:49.128Z,48.45
2017-11-15T20:29:16.631Z,52.42
2017-11-15T20:31:44.084Z,48.58
2017-11-15T20:34:11.516Z,54.38
2017-11-15T20:36:38.965Z,57.55
2017-11-15T20:39:07.321Z,61.00
2017-11-15T20:41:34.880Z,55.90
2017-11-15T20:44:02.323Z,48.97
2017-11-15T20:46:29.757Z,56.83
2017-11-15T20:48:57.188Z,55.83
2017-11-15T20:51:24.629Z,51.25
2017-11-15T20:53:52.155Z,53.33
2017-11-15T20:56:20.357Z,55.35
2017-11-15T20:58:47.786Z,62.00
2017-11-15T21:01:15.257Z,56.28
2017-11-15T21:03:42.699Z,61.10
2017-11-15T21:06:10.170Z,52.35
2017-11-15T21:08:37.630Z,69.62
2017-11-15T21:11:05.843Z,61.03
2017-11-15T21:13:33.286Z,64.05
2017-11-15T21:16:00.758Z,61.03
2017-11-15T21:18:28.194Z,55.33
2017-11-15T21:20:55.733Z,54.90
2017-11-15T21:23:23.193Z,58.65
2017-11-15T21:25:51.542Z,44.05
2017-11-15T21:28:18.981Z,51.90
2017-11-15T21:30:46.428Z,48.00
2017-11-15T21:33:13.962Z,50.67
2017-11-15T21:35:41.685Z,53.30
2017-11-15T21:38:09.123Z,45.85
2017-11-15T21:40:36.578Z,46.65
2017-11-15T21:43:04.014Z,51.80
2017-11-15T21:45:31.452Z,50.47
2017-11-15T21:47:59.210Z,55.58
2017-11-15T21:50:26.671Z,48.33
2017-11-15T21:52:54.140Z,45.95
2017-11-15T21:55:22.346Z,50.63
2017-11-15T21:57:49.899Z,47.22
2017-11-15T22:00:17.360Z,50.42
2017-11-15T22:02:44.925Z,63.28
2017-11-15T22:05:12.356Z,50.12
2017-11-15T22:07:49.960Z,53.45
2017-11-15T22:10:18.270Z,59.35
2017-11-15T22:12:45.701Z,55.05
2017-11-15T22:15:13.140Z,44.58
2017-11-15T22:17:40.655Z,52.10
2017-11-15T22:20:08.963Z,43.22
2017-11-15T22:22:36.409Z,58.92
2017-11-15T22:25:03.844Z,52.05
2017-11-15T22:27:31.316Z,53.70
2017-11-15T22:29:58.754Z,60.78
2017-11-15T22:32:26.259Z,53.10
2017-11-15T22:34:53.698Z,49.50
2017-11-15T22:37:21.150Z,53.15
2017-11-15T22:39:48.590Z,53.00
2017-11-15T22:42:16.469Z,57.00
2017-11-15T22:44:43.913Z,58.85
2017-11-15T22:47:11.372Z,46.08
2017-11-15T22:49:38.825Z,66.57
2017-11-15T22:52:06.264Z,56.05
2017-11-15T22:54:33.727Z,58.92
2017-11-15T22:57:01.930Z,53.53
2017-11-15T22:59:29.395Z,53.03
2017-11-15T23:01:56.836Z,62.25
2017-11-15T23:04:24.287Z,59.38
2017-11-15T23:06:51.733Z,56.25
2017-11-15T23:09:19.184Z,60.40
2017-11-15T23:11:46.713Z,58.00
2017-11-15T23:14:14.155Z,58.42
2017-11-15T23:16:41.677Z,57.03
2017-11-15T23:19:09.133Z,60.47
2017-11-15T23:21:36.569Z,52.70
2017-11-15T23:24:04.015Z,59.25
2017-11-15T23:26:31.453Z,55.33
2017-11-15T23:28:58.926Z,67.55
2017-11-15T23:31:26.357Z,60.03
2017-11-15T23:33:53.811Z,57.80
2017-11-15T23:36:21.349Z,62.58
2017-11-15T23:38:48.790Z,57.20
2017-11-15T23:41:16.350Z,55.03
2017-11-15T23:43:44.556Z,58.25
2017-11-15T23:46:12.007Z,62.08
2017-11-15T23:48:39.598Z,61.25
2017-11-15T23:51:07.134Z,54.70
2017-11-15T23:53:34.645Z,60.05
2017-11-15T23:56:02.096Z,57.30
2017-11-15T23:58:29.547Z,58.03
